Time;durP1;ratioP1;P1;durP2;ratioP2;P2;SDS_P1;SDS_P2;PMS_P1;PMS_P2;Temp;Humidity;BMP_temperature;BMP_pressure;BME280_temperature;BME280_humidity;BME280_pressure;Samples;Min_cycle;Max_cycle;Signal;HPM_P1;HPM_P2
2021/12/01 00:02:03;;;;;;;2.17;1.40;;;;;;;1.37;100.00;95650.00;5024598;28;20033;-75
2021/12/01 00:04:29;;;;;;;2.93;1.47;;;;;;;1.36;100.00;95644.00;5015728;28;20075;-76
2021/12/01 00:06:55;;;;;;;3.70;1.60;;;;;;;1.36;100.00;95643.19;5009521;28;20025;-76
2021/12/01 00:09:20;;;;;;;1.73;1.00;;;;;;;1.41;100.00;95641.09;5024993;28;20037;-76
2021/12/01 00:11:46;;;;;;;3.63;1.20;;;;;;;1.40;100.00;95624.69;5007572;28;20181;-75
2021/12/01 00:14:12;;;;;;;3.70;1.30;;;;;;;1.44;100.00;95630.47;5035745;28;20065;-76
2021/12/01 00:16:37;;;;;;;2.40;1.13;;;;;;;1.42;100.00;95624.59;5030040;28;20025;-76
2021/12/01 00:19:03;;;;;;;3.53;1.43;;;;;;;1.43;100.00;95615.88;5010511;28;20383;-76
2021/12/01 00:21:29;;;;;;;2.63;1.20;;;;;;;1.41;100.00;95621.19;5004998;28;20364;-76
2021/12/01 00:23:54;;;;;;;2.83;1.30;;;;;;;1.41;100.00;95608.22;5021219;28;20029;-75
2021/12/01 00:26:22;;;;;;;2.93;1.20;;;;;;;1.41;100.00;95581.50;5031634;28;20590;-76
2021/12/01 00:28:48;;;;;;;3.80;1.13;;;;;;;1.48;100.00;95595.63;5026506;28;20033;-76
2021/12/01 00:31:14;;;;;;;2.37;1.10;;;;;;;1.48;100.00;95594.81;5011465;28;20032;-75
2021/12/01 00:33:41;;;;;;;2.20;1.13;;;;;;;1.52;100.00;95596.22;5003996;28;20507;-76
2021/12/01 00:36:13;;;;;;;1.77;0.83;;;;;;;1.57;100.00;95594.06;5018998;28;20461;-78
2021/12/01 00:38:39;;;;;;;1.20;0.80;;;;;;;1.65;100.00;95596.91;4994482;28;20498;-77
2021/12/01 00:41:07;;;;;;;3.20;1.00;;;;;;;1.60;100.00;95592.06;5037495;28;20083;-77
2021/12/01 00:43:37;;;;;;;1.27;0.60;;;;;;;1.61;100.00;95588.53;5010767;28;20489;-77
2021/12/01 00:46:14;;;;;;;1.50;0.87;;;;;;;1.62;100.00;95587.59;5018411;28;20042;-77
2021/12/01 00:48:40;;;;;;;1.63;0.70;;;;;;;1.65;100.00;95587.34;5031488;28;20572;-77
2021/12/01 00:51:07;;;;;;;1.00;0.43;;;;;;;1.67;100.00;95578.63;5034677;28;20037;-77
2021/12/01 00:53:34;;;;;;;2.67;1.77;;;;;;;1.63;100.00;95581.44;5017881;28;20080;-77
2021/12/01 00:56:00;;;;;;;2.03;0.80;;;;;;;1.65;100.00;95584.75;5028492;28;20026;-77
2021/12/01 00:58:25;;;;;;;1.10;0.63;;;;;;;1.68;100.00;95573.34;5019048;28;20044;-77
2021/12/01 01:00:51;;;;;;;2.27;1.00;;;;;;;1.68;100.00;95567.28;5011124;28;20120;-77
2021/12/01 01:03:18;;;;;;;1.10;0.70;;;;;;;1.70;100.00;95562.84;5009875;28;20057;-76
2021/12/01 01:05:44;;;;;;;1.90;0.77;;;;;;;1.64;100.00;95561.53;5023265;28;20022;-77
2021/12/01 01:08:10;;;;;;;1.53;0.90;;;;;;;1.70;100.00;95552.47;5031151;28;20037;-77
2021/12/01 01:18:42;;;;;;;0.73;0.57;;;;;;;1.72;100.00;95558.34;5020120;28;20484;-77
2021/12/01 01:21:11;;;;;;;1.90;0.70;;;;;;;1.71;100.00;95557.53;5027607;28;20038;-77
2021/12/01 01:23:38;;;;;;;1.30;0.63;;;;;;;1.72;100.00;95545.41;5020369;28;20080;-77
2021/12/01 01:26:06;;;;;;;0.97;0.60;;;;;;;1.74;100.00;95544.31;5013992;28;20034;-77
2021/12/01 01:28:33;;;;;;;2.13;0.90;;;;;;;1.74;100.00;95535.72;5015539;28;20453;-77
2021/12/01 01:31:00;;;;;;;1.70;0.60;;;;;;;1.74;100.00;95538.31;5023838;28;20096;-77
2021/12/01 01:33:26;;;;;;;1.53;0.50;;;;;;;1.74;100.00;95530.53;5044434;28;20032;-78
2021/12/01 01:35:52;;;;;;;1.53;0.70;;;;;;;1.77;100.00;95535.47;5029298;28;20064;-77
2021/12/01 01:38:20;;;;;;;1.40;0.70;;;;;;;1.73;100.00;95531.47;5017149;28;20582;-78
2021/12/01 01:40:45;;;;;;;1.30;0.60;;;;;;;1.73;100.00;95518.53;5032856;28;20041;-78
2021/12/01 01:43:12;;;;;;;1.77;0.70;;;;;;;1.68;100.00;95518.06;5003068;28;20141;-77
2021/12/01 01:45:38;;;;;;;1.47;0.67;;;;;;;1.68;100.00;95518.91;5012723;28;20040;-78
2021/12/01 01:48:10;;;;;;;0.63;0.50;;;;;;;1.63;100.00;95515.84;5013385;28;20041;-77
2021/12/01 01:50:38;;;;;;;1.00;0.60;;;;;;;1.66;100.00;95518.19;5010175;28;20041;-78
2021/12/01 01:53:22;;;;;;;1.17;0.63;;;;;;;1.69;100.00;95517.94;5033786;28;20464;-78
2021/12/01 01:55:53;;;;;;;2.00;0.77;;;;;;;1.69;100.00;95523.13;5016510;28;20041;-77
2021/12/01 01:58:21;;;;;;;2.23;0.93;;;;;;;1.60;100.00;95516.91;5001408;28;20033;-77
2021/12/01 02:01:03;;;;;;;1.17;0.57;;;;;;;1.62;100.00;95509.84;5014388;28;20037;-80
2021/12/01 02:03:29;;;;;;;1.93;0.70;;;;;;;1.72;100.00;95496.97;5024035;28;20042;-77
2021/12/01 02:05:56;;;;;;;1.37;0.50;;;;;;;1.73;100.00;95496.00;5021604;28;20149;-77
2021/12/01 02:08:30;;;;;;;1.23;0.60;;;;;;;1.72;100.00;95498.75;5025074;28;20025;-78
2021/12/01 02:11:00;;;;;;;1.20;0.60;;;;;;;1.71;100.00;95486.72;5016219;28;20369;-78
2021/12/01 02:13:28;;;;;;;1.80;0.63;;;;;;;1.70;100.00;95487.66;5030953;28;20033;-78
2021/12/01 02:15:55;;;;;;;1.20;0.70;;;;;;;1.69;100.00;95478.25;5056227;28;20084;-77
2021/12/01 02:18:21;;;;;;;2.40;0.60;;;;;;;1.70;100.00;95485.88;5015114;28;20032;-77
2021/12/01 02:21:11;;;;;;;1.37;0.60;;;;;;;1.71;100.00;95486.72;5019696;28;20026;-78
2021/12/01 02:23:48;;;;;;;0.43;0.40;;;;;;;1.71;100.00;95486.72;5003512;28;20034;-78
2021/12/01 02:26:16;;;;;;;0.87;0.60;;;;;;;1.68;100.00;95474.00;5036694;28;20025;-77
2021/12/01 02:28:43;;;;;;;1.83;0.70;;;;;;;1.68;100.00;95474.00;4997212;28;20105;-77
2021/12/01 02:31:10;;;;;;;2.20;0.90;;;;;;;1.72;100.00;95472.81;5015632;28;20067;-80
2021/12/01 02:33:36;;;;;;;0.93;0.50;;;;;;;1.64;100.00;95465.66;5014499;28;20666;-78
2021/12/01 02:36:02;;;;;;;1.33;0.80;;;;;;;1.68;100.00;95466.22;5013830;28;20038;-78
2021/12/01 02:38:28;;;;;;;0.77;0.40;;;;;;;1.71;100.00;95465.97;5020366;28;20029;-78
2021/12/01 02:40:55;;;;;;;1.17;0.60;;;;;;;1.74;100.00;95460.53;5014853;28;20423;-78
2021/12/01 02:43:24;;;;;;;1.63;0.70;;;;;;;1.73;100.00;95469.28;5038937;28;20074;-76
2021/12/01 02:45:54;;;;;;;2.63;0.80;;;;;;;1.70;100.00;95453.97;5014266;28;20060;-80
2021/12/01 02:48:21;;;;;;;1.60;0.70;;;;;;;1.70;100.00;95449.59;5031593;28;20117;-77
2021/12/01 02:50:48;;;;;;;1.40;0.57;;;;;;;1.64;100.00;95450.94;5017368;28;20098;-77
2021/12/01 02:53:14;;;;;;;2.17;0.50;;;;;;;1.69;100.00;95453.16;5026656;28;20032;-77
2021/12/01 02:55:48;;;;;;;1.33;0.60;;;;;;;1.69;100.00;95453.16;5027038;28;20030;-78
2021/12/01 02:58:17;;;;;;;1.83;0.67;;;;;;;1.74;100.00;95442.41;5026466;28;20041;-78
2021/12/01 03:00:43;;;;;;;1.53;0.60;;;;;;;1.69;100.00;95439.38;5025648;28;20048;-78
2021/12/01 03:03:10;;;;;;;1.90;0.80;;;;;;;1.75;100.00;95436.28;5016880;28;20148;-78
2021/12/01 03:05:36;;;;;;;0.83;0.60;;;;;;;1.77;100.00;95434.38;5016772;28;20064;-78
2021/12/01 03:08:03;;;;;;;1.07;0.70;;;;;;;1.84;100.00;95433.75;5010621;28;20294;-78
2021/12/01 03:10:30;;;;;;;1.60;0.70;;;;;;;1.88;100.00;95429.16;5019183;28;20478;-77
2021/12/01 03:12:56;;;;;;;1.47;0.57;;;;;;;1.89;100.00;95423.84;5022373;28;20036;-78
2021/12/01 03:15:22;;;;;;;1.03;0.53;;;;;;;1.89;100.00;95433.38;5030923;28;20029;-78
2021/12/01 03:17:48;;;;;;;1.13;0.60;;;;;;;1.97;100.00;95419.78;5024825;28;20022;-78
2021/12/01 03:20:15;;;;;;;0.30;0.30;;;;;;;1.97;100.00;95402.44;5033364;28;20033;-78
2021/12/01 03:22:42;;;;;;;1.23;0.40;;;;;;;1.92;100.00;95409.81;5024421;28;20044;-78
2021/12/01 03:25:15;;;;;;;1.10;0.50;;;;;;;1.94;100.00;95405.28;5020707;28;20030;-77
2021/12/01 03:27:41;;;;;;;2.03;0.43;;;;;;;1.93;100.00;95398.47;5012975;28;20057;-78
2021/12/01 03:30:10;;;;;;;1.17;0.80;;;;;;;1.95;100.00;95399.19;5004018;28;20033;-77
2021/12/01 03:32:36;;;;;;;1.23;0.53;;;;;;;1.94;100.00;95396.69;5020770;28;20128;-78
2021/12/01 03:35:14;;;;;;;0.90;0.60;;;;;;;1.95;100.00;95391.41;5013236;28;20059;-79
2021/12/01 03:37:45;;;;;;;0.53;0.43;;;;;;;1.96;100.00;95390.44;5022469;28;20052;-77
2021/12/01 03:40:13;;;;;;;3.57;0.50;;;;;;;2.01;100.00;95390.91;5041110;28;20064;-78
2021/12/01 03:42:39;;;;;;;1.53;0.57;;;;;;;1.99;100.00;95382.41;5035563;28;20078;-78
2021/12/01 03:45:07;;;;;;;1.47;0.50;;;;;;;1.99;100.00;95381.59;5007752;28;20091;-78
2021/12/01 03:47:33;;;;;;;1.60;0.60;;;;;;;2.01;100.00;95383.13;5016421;28;20037;-78
2021/12/01 03:49:59;;;;;;;1.70;0.40;;;;;;;2.03;100.00;95378.59;5027472;28;20657;-78
2021/12/01 03:52:27;;;;;;;0.40;0.33;;;;;;;1.99;100.00;95381.59;5003166;28;20036;-77
2021/12/01 03:54:53;;;;;;;0.90;0.57;;;;;;;1.98;100.00;95375.59;5010508;28;20033;-78
2021/12/01 03:57:20;;;;;;;1.27;0.60;;;;;;;2.02;100.00;95368.38;5012132;28;20021;-77
2021/12/01 03:59:46;;;;;;;0.60;0.30;;;;;;;1.99;100.00;95360.84;5007532;28;20089;-78
2021/12/01 04:02:11;;;;;;;1.40;0.50;;;;;;;2.01;100.00;95359.78;5009380;28;20479;-78
2021/12/01 04:04:40;;;;;;;1.13;0.40;;;;;;;1.99;100.00;95360.84;5024963;28;20033;-79
2021/12/01 04:07:06;;;;;;;1.10;0.27;;;;;;;2.12;100.00;95356.28;5028499;28;20036;-77
2021/12/01 04:09:32;;;;;;;0.63;0.40;;;;;;;2.12;100.00;95351.09;5021200;28;20060;-79
2021/12/01 04:11:59;;;;;;;0.60;0.40;;;;;;;2.18;100.00;95350.59;5001139;28;20027;-77
2021/12/01 04:14:25;;;;;;;0.70;0.50;;;;;;;2.16;100.00;95343.88;5014081;28;20057;-77
2021/12/01 04:16:51;;;;;;;0.70;0.40;;;;;;;2.09;100.00;95341.78;5017946;28;20122;-78
2021/12/01 04:19:17;;;;;;;0.40;0.30;;;;;;;2.04;100.00;95333.56;5029781;28;20033;-78
2021/12/01 04:21:45;;;;;;;0.73;0.40;;;;;;;2.04;100.00;95336.16;5000099;28;20671;-78
2021/12/01 04:24:11;;;;;;;1.13;0.53;;;;;;;1.99;100.00;95324.56;5032859;28;20029;-77
2021/12/01 04:26:37;;;;;;;1.20;0.50;;;;;;;2.01;100.00;95322.63;5019425;28;20025;-80
2021/12/01 04:29:05;;;;;;;2.23;0.90;;;;;;;2.00;100.00;95316.63;4996770;28;20029;-78
2021/12/01 04:31:35;;;;;;;1.40;0.50;;;;;;;1.95;100.00;95316.22;5014823;28;20177;-78
2021/12/01 04:34:01;;;;;;;0.60;0.40;;;;;;;1.93;100.00;95312.09;5024211;28;20037;-77
2021/12/01 04:36:32;;;;;;;1.00;0.60;;;;;;;1.95;100.00;95312.81;5030621;28;21697;-78
2021/12/01 04:38:57;;;;;;;1.00;0.60;;;;;;;1.95;100.00;95308.44;5009867;28;20057;-77
2021/12/01 04:41:24;;;;;;;0.80;0.53;;;;;;;1.95;100.00;95308.44;5005516;28;20038;-78
2021/12/01 04:43:53;;;;;;;0.93;0.50;;;;;;;1.96;100.00;95304.88;5024672;28;20010;-78
2021/12/01 04:46:20;;;;;;;1.37;0.70;;;;;;;1.92;100.00;95306.09;5015814;28;20030;-79
2021/12/01 04:48:49;;;;;;;1.50;0.83;;;;;;;1.95;100.00;95298.06;5022961;28;20029;-78
2021/12/01 04:51:17;;;;;;;1.03;0.60;;;;;;;1.95;100.00;95287.69;5037470;28;20028;-77
2021/12/01 04:53:44;;;;;;;1.27;0.80;;;;;;;1.95;100.00;95290.28;5030041;28;20028;-77
2021/12/01 04:56:10;;;;;;;1.50;0.70;;;;;;;1.91;100.00;95286.28;5019100;28;20083;-78
2021/12/01 04:58:36;;;;;;;0.90;0.60;;;;;;;1.98;100.00;95281.41;5009774;28;20099;-77
2021/12/01 05:01:02;;;;;;;1.77;0.73;;;;;;;2.00;100.00;95271.72;5018943;28;20547;-78
2021/12/01 05:03:30;;;;;;;4.13;1.67;;;;;;;1.96;100.00;95273.75;5029369;28;20051;-78
2021/12/01 05:05:57;;;;;;;1.70;0.83;;;;;;;1.98;100.00;95266.69;5004074;28;20564;-77
2021/12/01 05:08:23;;;;;;;1.43;0.50;;;;;;;1.97;100.00;95265.03;5010891;28;20036;-78
2021/12/01 05:10:50;;;;;;;1.53;0.70;;;;;;;1.98;100.00;95252.88;5006200;28;20034;-78
2021/12/01 05:13:16;;;;;;;0.87;0.53;;;;;;;1.95;100.00;95260.94;5032620;28;20033;-78
2021/12/01 05:15:42;;;;;;;2.40;1.00;;;;;;;1.96;100.00;95247.84;5011163;28;20542;-78
2021/12/01 05:18:08;;;;;;;1.40;0.70;;;;;;;1.96;100.00;95242.66;5029107;28;20034;-78
2021/12/01 05:20:35;;;;;;;1.23;0.67;;;;;;;1.98;100.00;95239.91;5010754;28;20092;-78
2021/12/01 05:23:01;;;;;;;0.97;0.63;;;;;;;1.99;100.00;95233.78;5010186;28;20140;-79
2021/12/01 05:25:26;;;;;;;1.60;0.70;;;;;;;1.94;100.00;95228.16;5046493;28;20108;-78
2021/12/01 05:27:52;;;;;;;1.57;0.80;;;;;;;2.00;100.00;95222.47;5031277;28;20572;-78
2021/12/01 05:30:20;;;;;;;1.87;0.90;;;;;;;2.00;100.00;95212.91;5040706;28;20037;-77
2021/12/01 05:32:47;;;;;;;3.10;1.50;;;;;;;1.98;100.00;95214.81;5019149;28;20061;-78
2021/12/01 05:35:14;;;;;;;4.43;1.90;;;;;;;1.96;100.00;95208.94;5034069;28;20059;-78
2021/12/01 05:37:40;;;;;;;6.33;2.87;;;;;;;1.99;100.00;95200.91;5008117;28;20033;-77
2021/12/01 05:40:07;;;;;;;5.10;1.83;;;;;;;2.00;100.00;95202.53;5018584;28;20033;-77
2021/12/01 05:42:33;;;;;;;2.93;1.30;;;;;;;2.03;100.00;95196.28;5004762;28;20398;-78
2021/12/01 05:44:59;;;;;;;2.10;0.93;;;;;;;2.06;100.00;95191.63;5012728;28;20509;-77
2021/12/01 05:47:25;;;;;;;4.57;1.90;;;;;;;2.03;100.00;95194.50;5013806;28;20041;-77
2021/12/01 05:49:56;;;;;;;4.47;2.13;;;;;;;2.08;100.00;95188.94;5027199;28;20143;-78
2021/12/01 05:52:22;;;;;;;2.33;1.20;;;;;;;2.10;100.00;95181.81;5013974;28;20064;-78
2021/12/01 05:54:50;;;;;;;3.47;1.23;;;;;;;2.17;100.00;95182.09;5026905;28;20064;-79
2021/12/01 05:57:16;;;;;;;2.77;1.60;;;;;;;2.18;100.00;95170.75;5021077;28;20121;-78
2021/12/01 05:59:43;;;;;;;6.33;2.90;;;;;;;2.19;100.00;95172.44;5005886;28;20116;-77
2021/12/01 06:02:09;;;;;;;6.07;2.50;;;;;;;2.17;100.00;95176.91;5011733;28;20041;-77
2021/12/01 06:04:35;;;;;;;2.87;1.27;;;;;;;2.20;100.00;95166.28;5013385;28;20032;-78
2021/12/01 06:07:01;;;;;;;3.23;1.23;;;;;;;2.22;100.00;95170.38;5022529;28;20634;-77
2021/12/01 06:09:26;;;;;;;2.73;1.17;;;;;;;2.30;100.00;95164.50;5024985;28;20123;-78
2021/12/01 06:11:53;;;;;;;2.50;0.83;;;;;;;2.35;100.00;95157.16;5006134;28;20023;-80
2021/12/01 06:14:19;;;;;;;1.63;0.67;;;;;;;2.35;100.00;95150.19;5012244;28;20021;-77
2021/12/01 06:16:46;;;;;;;3.47;1.30;;;;;;;2.38;100.00;95159.44;5022148;28;20486;-78
2021/12/01 06:19:12;;;;;;;2.37;1.03;;;;;;;2.43;100.00;95146.91;5035012;28;20512;-77
2021/12/01 06:21:38;;;;;;;5.47;1.30;;;;;;;2.42;100.00;95137.50;5020784;28;20033;-80
2021/12/01 06:24:04;;;;;;;2.00;1.20;;;;;;;2.49;100.00;95135.19;5023162;28;20087;-78
2021/12/01 06:26:30;;;;;;;3.57;1.33;;;;;;;2.57;100.00;95128.31;5008586;28;20088;-77
2021/12/01 06:28:55;;;;;;;2.20;0.97;;;;;;;2.63;100.00;95126.97;5017103;28;20108;-78
2021/12/01 06:31:22;;;;;;;1.90;0.90;;;;;;;2.68;100.00;95119.56;5004133;28;20037;-78
2021/12/01 06:33:49;;;;;;;1.70;0.90;;;;;;;2.82;100.00;95113.16;5024049;28;20025;-77
2021/12/01 06:36:15;;;;;;;1.60;0.63;;;;;;;2.85;100.00;95105.09;5017868;28;20040;-77
2021/12/01 06:38:41;;;;;;;1.67;0.77;;;;;;;2.90;100.00;95097.69;5006806;28;20029;-79
2021/12/01 06:41:08;;;;;;;2.83;0.70;;;;;;;2.99;100.00;95093.44;5028313;28;20030;-78
2021/12/01 06:43:34;;;;;;;3.00;1.00;;;;;;;2.94;100.00;95090.44;5031136;28;20040;-79
2021/12/01 06:46:01;;;;;;;2.17;0.90;;;;;;;2.86;100.00;95087.72;5020225;28;20072;-78
2021/12/01 06:48:26;;;;;;;13.13;7.37;;;;;;;2.83;100.00;95084.44;5007590;28;20029;-78
2021/12/01 06:50:52;;;;;;;136.27;72.63;;;;;;;2.83;100.00;95078.44;5023169;28;20106;-77
2021/12/01 06:53:20;;;;;;;53.73;32.37;;;;;;;2.82;100.00;95080.22;5015405;28;20432;-77
2021/12/01 06:55:46;;;;;;;14.13;11.00;;;;;;;2.73;100.00;95077.63;5012950;28;20030;-76
2021/12/01 06:58:13;;;;;;;2.80;1.73;;;;;;;2.72;100.00;95073.41;5012571;28;20379;-78
2021/12/01 07:00:39;;;;;;;5.23;2.10;;;;;;;2.68;100.00;95072.84;5020436;28;20112;-78
2021/12/01 07:03:05;;;;;;;2.70;1.27;;;;;;;2.73;100.00;95064.66;5014848;28;20660;-78
2021/12/01 07:05:31;;;;;;;2.60;1.23;;;;;;;2.80;100.00;95066.53;5026613;28;20029;-78
2021/12/01 07:07:57;;;;;;;5.47;1.70;;;;;;;2.82;100.00;95058.63;5013762;28;20044;-79
2021/12/01 07:10:23;;;;;;;5.73;2.37;;;;;;;2.90;100.00;95061.34;5015545;28;20445;-78
2021/12/01 07:12:50;;;;;;;3.23;1.30;;;;;;;2.90;100.00;95066.53;5003821;28;20029;-77
2021/12/01 07:15:18;;;;;;;1.83;1.07;;;;;;;2.93;100.00;95053.25;5013003;28;20021;-77
2021/12/01 07:17:49;;;;;;;3.23;1.00;;;;;;;2.93;100.00;95066.25;5024540;28;20052;-77
2021/12/01 07:20:16;;;;;;;2.33;0.80;;;;;;;2.98;100.00;95045.84;5015960;28;20433;-78
2021/12/01 07:22:43;;;;;;;3.63;1.13;;;;;;;3.04;100.00;95055.69;5021438;28;20115;-78
2021/12/01 07:25:10;;;;;;;2.50;1.00;;;;;;;3.02;100.00;95047.22;5019294;28;20064;-78
2021/12/01 07:27:37;;;;;;;3.73;1.57;;;;;;;3.06;100.00;95039.97;5026893;28;20037;-79
2021/12/01 07:30:03;;;;;;;10.27;4.83;;;;;;;3.05;100.00;95033.97;5021227;28;20026;-77
2021/12/01 07:32:31;;;;;;;3.60;1.63;;;;;;;3.07;100.00;95032.03;5007469;28;20041;-78
2021/12/01 07:34:57;;;;;;;5.00;2.37;;;;;;;3.07;100.00;95026.00;5015019;28;20025;-78
2021/12/01 07:37:23;;;;;;;5.53;2.20;;;;;;;3.12;100.00;95017.78;5018319;28;20410;-78
2021/12/01 07:39:49;;;;;;;3.03;1.70;;;;;;;3.11;100.00;95016.97;5007228;28;20029;-78
2021/12/01 07:42:16;;;;;;;2.50;0.93;;;;;;;3.11;100.00;95022.16;5036625;28;20044;-78
2021/12/01 07:44:42;;;;;;;2.43;0.70;;;;;;;3.13;100.00;95019.44;5009237;28;20057;-77
2021/12/01 07:47:11;;;;;;;1.47;0.63;;;;;;;3.16;100.00;95011.34;5020571;28;20390;-77
2021/12/01 07:49:37;;;;;;;1.60;0.50;;;;;;;3.15;100.00;95002.72;5016997;28;20512;-78
2021/12/01 07:52:05;;;;;;;1.30;0.73;;;;;;;3.17;100.00;94997.41;5019469;28;20072;-78
2021/12/01 07:54:32;;;;;;;0.90;0.60;;;;;;;3.20;100.00;94995.31;5012867;28;20017;-77
2021/12/01 07:56:58;;;;;;;4.00;0.77;;;;;;;3.30;100.00;94995.28;5025144;28;20108;-77
2021/12/01 07:59:23;;;;;;;0.90;0.60;;;;;;;3.29;100.00;94983.25;5023424;28;20128;-77
2021/12/01 08:01:50;;;;;;;0.90;0.50;;;;;;;3.40;100.00;94972.66;5001441;28;20025;-77
2021/12/01 08:04:16;;;;;;;0.87;0.50;;;;;;;3.42;100.00;94964.69;5008277;28;20112;-77
2021/12/01 08:06:45;;;;;;;1.10;0.50;;;;;;;3.45;100.00;94969.59;5025177;28;20033;-77
2021/12/01 08:09:11;;;;;;;1.20;0.60;;;;;;;3.44;100.00;94961.00;5024408;28;20033;-77
2021/12/01 08:11:38;;;;;;;1.77;0.60;;;;;;;3.57;100.00;94960.66;5020134;28;20033;-77
2021/12/01 08:14:06;;;;;;;1.47;0.70;;;;;;;3.62;100.00;94958.44;5018558;28;20037;-77
2021/12/01 08:16:33;;;;;;;1.17;0.67;;;;;;;3.69;100.00;94954.28;5002114;28;20040;-78
2021/12/01 08:18:59;;;;;;;2.00;0.70;;;;;;;3.75;100.00;94951.06;5013227;28;20021;-77
2021/12/01 08:21:25;;;;;;;0.83;0.47;;;;;;;3.74;100.00;94936.44;5029294;28;20029;-77
2021/12/01 08:23:52;;;;;;;1.63;0.50;;;;;;;3.74;100.00;94940.81;5025295;28;20022;-77
2021/12/01 08:26:19;;;;;;;2.17;0.70;;;;;;;3.73;100.00;94928.78;5026578;28;20040;-77
2021/12/01 08:28:47;;;;;;;1.23;0.73;;;;;;;3.82;100.00;94932.25;5010726;28;20040;-77
2021/12/01 08:31:14;;;;;;;1.03;0.30;;;;;;;3.81;100.00;94925.44;5023784;28;20033;-77
2021/12/01 08:33:41;;;;;;;0.67;0.40;;;;;;;3.87;100.00;94923.06;5003045;28;20022;-77
2021/12/01 08:36:07;;;;;;;1.57;0.40;;;;;;;3.82;100.00;94909.66;5025142;28;20453;-77
2021/12/01 08:38:33;;;;;;;0.77;0.40;;;;;;;3.92;100.00;94917.38;5023591;28;20037;-79
2021/12/01 08:40:59;;;;;;;1.07;0.33;;;;;;;3.99;100.00;94908.84;5013587;28;20045;-77
2021/12/01 08:43:25;;;;;;;1.10;0.40;;;;;;;4.04;100.00;94910.19;5027572;28;20025;-76
2021/12/01 08:45:51;;;;;;;2.70;0.90;;;;;;;4.13;100.00;94907.47;5010823;28;20598;-77
2021/12/01 08:48:17;;;;;;;2.50;0.67;;;;;;;4.13;100.00;94901.47;5019468;28;20033;-77
2021/12/01 08:50:44;;;;;;;1.90;0.80;;;;;;;4.26;100.00;94894.06;5022441;28;20026;-77
2021/12/01 08:53:10;;;;;;;2.43;0.90;;;;;;;4.44;100.00;94889.63;5016367;28;20040;-77
2021/12/01 08:55:40;;;;;;;3.07;0.90;;;;;;;4.53;100.00;94892.25;5031532;28;20033;-77
2021/12/01 08:58:14;;;;;;;2.17;0.50;;;;;;;5.05;100.00;94877.31;5006257;28;20105;-78
2021/12/01 09:00:44;;;;;;;;;;;;;;;5.85;100.00;94867.16;5010424;28;20064;-77
2021/12/01 09:03:10;;;;;;;3.67;1.10;;;;;;;6.26;100.00;94861.13;4997937;28;19917;-77
2021/12/01 09:05:36;;;;;;;0.50;0.30;;;;;;;7.17;100.00;94842.31;5014604;28;20033;-76
2021/12/01 09:08:02;;;;;;;1.47;0.47;;;;;;;6.73;100.00;94850.69;5027539;28;20589;-77
2021/12/01 09:10:28;;;;;;;1.17;0.40;;;;;;;7.45;100.00;94850.47;5003507;28;20022;-78
2021/12/01 09:12:54;;;;;;;0.60;0.20;;;;;;;7.84;96.39;94839.06;5024438;28;20125;-77
2021/12/01 09:15:20;;;;;;;0.73;0.40;;;;;;;8.22;95.96;94821.53;5019033;28;20037;-77
2021/12/01 09:17:46;;;;;;;0.87;0.30;;;;;;;8.84;92.93;94824.81;5023926;28;20030;-77
2021/12/01 09:20:12;;;;;;;0.30;0.20;;;;;;;7.92;95.67;94822.50;5003778;28;20029;-77
2021/12/01 09:22:40;;;;;;;1.03;0.50;;;;;;;6.96;100.00;94824.63;5006889;28;20501;-76
2021/12/01 09:25:07;;;;;;;1.73;0.83;;;;;;;6.51;100.00;94820.09;5030406;28;20113;-76
2021/12/01 09:27:34;;;;;;;0.93;0.40;;;;;;;6.44;100.00;94816.50;5025682;28;20026;-77
2021/12/01 09:30:00;;;;;;;0.67;0.40;;;;;;;6.17;100.00;94815.13;5016419;28;20116;-77
2021/12/01 09:32:34;;;;;;;0.80;0.50;;;;;;;6.90;100.00;94790.50;5032125;28;20044;-77
2021/12/01 09:35:01;;;;;;;0.60;0.43;;;;;;;7.32;98.89;94790.09;5053846;28;20037;-77
2021/12/01 09:37:27;;;;;;;0.30;0.30;;;;;;;7.73;97.07;94785.34;5015287;28;20115;-79
2021/12/01 09:39:53;;;;;;;1.33;0.30;;;;;;;7.80;96.44;94780.22;5022267;28;20029;-77
2021/12/01 09:42:21;;;;;;;0.50;0.20;;;;;;;7.85;96.43;94792.78;5002242;28;20125;-77
2021/12/01 09:44:49;;;;;;;0.47;0.40;;;;;;;7.69;97.13;94784.06;5031057;28;20546;-77
2021/12/01 09:47:19;;;;;;;2.87;0.53;;;;;;;7.80;97.72;94786.25;5005518;28;20032;-77
2021/12/01 09:49:46;;;;;;;0.53;0.23;;;;;;;8.18;94.06;94773.16;5030896;28;20033;-77
2021/12/01 09:52:12;;;;;;;1.20;0.40;;;;;;;8.40;93.89;94758.34;5018108;28;20372;-77
2021/12/01 09:54:39;;;;;;;3.27;0.90;;;;;;;8.70;91.50;94740.78;5017917;28;20124;-77
2021/12/01 09:57:06;;;;;;;1.33;0.50;;;;;;;8.10;93.47;94744.41;5014421;28;20041;-77
2021/12/01 09:59:33;;;;;;;1.47;0.50;;;;;;;8.58;91.91;94737.00;5015704;28;20035;-77
2021/12/01 10:01:59;;;;;;;0.70;0.43;;;;;;;9.00;90.16;94739.88;5024857;28;20033;-77
2021/12/01 10:04:28;;;;;;;1.60;0.53;;;;;;;8.90;89.85;94716.59;5006443;28;20115;-77
2021/12/01 10:07:11;;;;;;;1.03;0.50;;;;;;;7.89;94.75;94716.34;5016984;28;20176;-77
2021/12/01 10:09:45;;;;;;;1.92;0.50;;;;;;;8.41;93.75;94704.13;5013864;28;20049;-77
2021/12/01 10:12:11;;;;;;;1.33;0.63;;;;;;;7.96;94.84;94691.06;5031737;28;20034;-77
2021/12/01 10:14:37;;;;;;;1.33;0.50;;;;;;;7.73;96.93;94691.16;5026513;28;20053;-77
2021/12/01 10:17:03;;;;;;;2.30;0.80;;;;;;;7.55;98.45;94688.06;5020350;28;20190;-79
2021/12/01 10:19:31;;;;;;;2.10;0.47;;;;;;;7.57;99.68;94675.59;4996139;28;20022;-77
2021/12/01 10:21:57;;;;;;;1.20;0.33;;;;;;;7.61;99.86;94678.66;5020387;28;20036;-76
2021/12/01 10:24:26;;;;;;;1.17;0.20;;;;;;;7.31;100.00;94658.53;5020662;28;20037;-77
2021/12/01 10:27:04;;;;;;;1.50;0.50;;;;;;;7.29;100.00;94663.13;5026471;28;20025;-77
2021/12/01 10:29:40;;;;;;;1.87;0.77;;;;;;;6.94;100.00;94674.19;5019541;28;20415;-76
2021/12/01 10:32:07;;;;;;;2.23;0.97;;;;;;;7.15;100.00;94669.13;5007009;28;20052;-77
2021/12/01 10:34:40;;;;;;;4.77;2.37;;;;;;;7.23;100.00;94663.03;5011702;28;20035;-77
2021/12/01 10:37:26;;;;;;;2.00;0.77;;;;;;;7.35;100.00;94659.00;5030388;28;20038;-78
2021/12/01 10:40:10;;;;;;;2.70;0.50;;;;;;;7.52;99.06;94647.38;5034102;28;20057;-78
2021/12/01 10:42:55;;;;;;;;;;;;;;;7.64;98.40;94633.84;5008175;28;20033;-78
2021/12/01 10:45:45;;;;;;;0.43;0.30;;;;;;;7.70;100.00;94628.69;5035089;28;19970;-78
2021/12/01 10:48:29;;;;;;;3.07;1.17;;;;;;;7.91;99.64;94620.09;5040450;28;20028;-77
2021/12/01 10:50:55;;;;;;;2.00;0.50;;;;;;;7.79;99.96;94617.16;5053038;28;20088;-78
2021/12/01 10:53:23;;;;;;;2.23;0.30;;;;;;;7.73;100.00;94627.53;5007862;28;20115;-78
2021/12/01 10:55:55;;;;;;;0.93;0.37;;;;;;;7.56;100.00;94611.22;5028476;28;20143;-78
2021/12/01 10:58:30;;;;;;;1.20;0.40;;;;;;;7.48;100.00;94606.06;5032046;28;20079;-78
2021/12/01 11:00:56;;;;;;;0.10;0.10;;;;;;;7.45;100.00;94598.59;5025111;28;20091;-78
2021/12/01 11:03:27;;;;;;;1.77;0.20;;;;;;;7.50;100.00;94602.25;5004284;28;20049;-78
2021/12/01 11:06:08;;;;;;;2.00;0.70;;;;;;;7.41;100.00;94599.91;5008987;28;20069;-78
2021/12/01 11:08:38;;;;;;;0.40;0.27;;;;;;;7.40;100.00;94585.22;5002116;28;20585;-78
2021/12/01 11:11:05;;;;;;;1.53;0.57;;;;;;;7.38;100.00;94581.97;5016103;28;20663;-78
2021/12/01 11:13:31;;;;;;;1.47;0.50;;;;;;;7.30;100.00;94596.75;5016627;28;20111;-78
2021/12/01 11:15:58;;;;;;;0.20;0.20;;;;;;;7.25;100.00;94593.06;5016283;28;20414;-78
2021/12/01 11:18:27;;;;;;;1.83;0.80;;;;;;;7.18;100.00;94581.72;5032942;28;20106;-78
2021/12/01 11:20:58;;;;;;;0.90;0.60;;;;;;;7.18;100.00;94587.75;5035056;28;20579;-78
2021/12/01 11:23:30;;;;;;;1.20;0.10;;;;;;;7.16;100.00;94574.03;5009552;28;20037;-78
2021/12/01 11:26:09;;;;;;;0.40;0.20;;;;;;;7.14;100.00;94567.34;5014253;28;20055;-78
2021/12/01 11:28:55;;;;;;;0.70;0.40;;;;;;;7.21;100.00;94557.78;5026612;28;20091;-79
2021/12/01 11:31:25;;;;;;;0.63;0.20;;;;;;;7.13;100.00;94556.09;5028250;28;20033;-78
2021/12/01 11:33:56;;;;;;;0.47;0.30;;;;;;;7.19;100.00;94547.53;5034519;28;20468;-78
2021/12/01 11:36:36;;;;;;;1.33;0.40;;;;;;;7.18;100.00;94543.31;5029356;28;20133;-78
2021/12/01 11:39:30;;;;;;;2.97;1.30;;;;;;;7.13;100.00;94536.97;5028383;28;20033;-78
2021/12/01 11:41:55;;;;;;;8.88;4.65;;;;;;;7.14;100.00;94535.97;5010769;28;20033;-78
2021/12/01 11:44:25;;;;;;;2.17;0.90;;;;;;;7.21;100.00;94536.88;5018023;28;20124;-78
2021/12/01 11:46:51;;;;;;;1.80;0.50;;;;;;;7.30;100.00;94526.16;5027102;28;20457;-78